Time;durP1;ratioP1;P1;durP2;ratioP2;P2;SDS_P1;SDS_P2;PMS_P1;PMS_P2;Temp;Humidity;BMP_temperature;BMP_pressure;BME280_temperature;BME280_humidity;BME280_pressure;Samples;Min_cycle;Max_cycle;Signal;HPM_P1;HPM_P2
2021/01/07 00:00:54;;;;;;;20.65;10.82;;;-0.50;99.90;;;;;;5048573;28;20121;-79
2021/01/07 00:03:21;;;;;;;18.00;11.18;;;-0.50;99.90;;;;;;5053459;28;20469;-79
2021/01/07 00:05:52;;;;;;;17.02;10.02;;;-0.50;99.90;;;;;;5050335;28;20586;-79
2021/01/07 00:08:23;;;;;;;20.45;11.07;;;-0.50;99.90;;;;;;5052516;28;20068;-79
2021/01/07 00:10:55;;;;;;;17.95;9.90;;;-0.50;99.90;;;;;;5050167;28;20136;-79
2021/01/07 00:13:21;;;;;;;17.33;10.23;;;-0.40;99.90;;;;;;5049838;28;20141;-79
2021/01/07 00:15:52;;;;;;;18.60;9.55;;;-0.50;99.90;;;;;;5049938;28;20139;-79
2021/01/07 00:18:19;;;;;;;18.42;10.07;;;-0.40;99.90;;;;;;5067962;28;20129;-79
2021/01/07 00:20:50;;;;;;;18.17;10.70;;;-0.40;99.90;;;;;;5042623;28;20048;-80
2021/01/07 00:23:22;;;;;;;15.52;8.93;;;-0.40;99.90;;;;;;5066291;28;20574;-79
2021/01/07 00:25:53;;;;;;;16.98;9.75;;;-0.40;99.90;;;;;;5057322;28;20123;-79
2021/01/07 00:28:24;;;;;;;17.02;9.57;;;-0.40;99.90;;;;;;5049717;28;20332;-79
2021/01/07 00:30:56;;;;;;;16.42;9.48;;;-0.40;99.90;;;;;;5041492;28;20040;-79
2021/01/07 00:33:27;;;;;;;15.90;8.98;;;-0.40;99.90;;;;;;5063996;28;20044;-79
2021/01/07 00:35:58;;;;;;;16.27;9.27;;;-0.40;99.90;;;;;;5071968;28;20123;-79
2021/01/07 00:38:30;;;;;;;17.05;9.07;;;-0.40;99.90;;;;;;5073026;28;20151;-79
2021/01/07 00:41:01;;;;;;;15.30;9.80;;;-0.40;99.90;;;;;;5090757;28;20040;-79
2021/01/07 00:43:27;;;;;;;13.20;8.32;;;-0.40;99.90;;;;;;5073294;28;20522;-79
2021/01/07 00:45:58;;;;;;;15.75;8.90;;;-0.40;99.90;;;;;;5090683;28;20040;-79
2021/01/07 00:48:30;;;;;;;15.82;8.93;;;-0.40;99.90;;;;;;5074207;28;20048;-79
2021/01/07 00:51:02;;;;;;;15.68;9.05;;;-0.40;99.90;;;;;;5074491;28;20040;-79
2021/01/07 00:53:28;;;;;;;15.05;8.90;;;-0.50;99.90;;;;;;5073417;28;20051;-80
2021/01/07 00:55:59;;;;;;;17.20;9.73;;;-0.50;99.90;;;;;;5073430;28;20594;-79
2021/01/07 00:58:36;;;;;;;16.20;9.30;;;-0.40;99.90;;;;;;5073646;28;20044;-79
2021/01/07 01:01:07;;;;;;;13.32;8.55;;;-0.40;99.90;;;;;;5073587;28;20138;-79
2021/01/07 01:03:38;;;;;;;15.73;8.68;;;-0.40;99.90;;;;;;5073029;28;20139;-79
2021/01/07 01:06:09;;;;;;;14.18;8.77;;;-0.40;99.90;;;;;;5073181;28;20130;-79
2021/01/07 01:08:41;;;;;;;14.50;9.02;;;-0.40;99.90;;;;;;5073000;28;20082;-79
2021/01/07 01:11:12;;;;;;;16.60;8.60;;;-0.50;99.90;;;;;;5073301;28;20504;-79
2021/01/07 01:13:43;;;;;;;14.93;8.43;;;-0.40;99.90;;;;;;5073086;28;20129;-79
2021/01/07 01:16:14;;;;;;;14.88;8.80;;;-0.40;99.90;;;;;;5089252;28;20046;-79
2021/01/07 01:18:45;;;;;;;15.27;8.55;;;-0.40;99.90;;;;;;5072491;28;20508;-79
2021/01/07 01:21:17;;;;;;;15.13;8.55;;;-0.40;99.90;;;;;;5089267;28;20080;-79
2021/01/07 01:23:48;;;;;;;13.40;8.85;;;-0.40;99.90;;;;;;5073388;28;20058;-79
2021/01/07 01:26:19;;;;;;;15.35;8.30;;;-0.40;99.90;;;;;;5072682;28;20475;-79
2021/01/07 01:28:51;;;;;;;13.95;8.15;;;-0.40;99.90;;;;;;5088442;28;20050;-79
2021/01/07 01:31:22;;;;;;;12.55;7.75;;;-0.40;99.90;;;;;;5072862;28;20040;-79
2021/01/07 01:33:54;;;;;;;13.50;8.48;;;-0.40;99.90;;;;;;5072670;28;20131;-79
2021/01/07 01:36:28;;;;;;;14.32;8.25;;;-0.40;99.90;;;;;;5072929;28;20166;-80
2021/01/07 01:38:59;;;;;;;14.02;9.13;;;-0.40;99.90;;;;;;5071929;28;20064;-79
2021/01/07 01:41:30;;;;;;;14.57;9.20;;;-0.40;99.90;;;;;;5089907;28;20044;-79
2021/01/07 01:43:57;;;;;;;13.43;7.88;;;-0.50;99.90;;;;;;5075291;28;20506;-79
2021/01/07 01:46:28;;;;;;;11.60;7.05;;;-0.50;99.90;;;;;;5094625;28;20554;-79
2021/01/07 01:49:00;;;;;;;12.88;7.85;;;-0.50;99.90;;;;;;5072327;28;20048;-79
2021/01/07 01:51:32;;;;;;;13.15;7.65;;;-0.40;99.90;;;;;;5071947;28;20135;-80
2021/01/07 01:53:58;;;;;;;13.93;7.03;;;-0.40;99.90;;;;;;5071678;28;20465;-79
2021/01/07 01:56:24;;;;;;;11.52;7.40;;;-0.50;99.90;;;;;;5071662;28;20054;-79
2021/01/07 01:58:59;;;;;;;13.27;7.80;;;-0.40;99.90;;;;;;5071715;28;20411;-80
2021/01/07 02:01:30;;;;;;;13.27;7.55;;;-0.40;99.90;;;;;;5072161;28;20135;-80
2021/01/07 02:04:03;;;;;;;14.65;8.50;;;-0.40;99.90;;;;;;5071991;28;20135;-79
2021/01/07 02:06:35;;;;;;;12.23;7.53;;;-0.40;99.90;;;;;;5088130;28;20487;-79
2021/01/07 02:09:07;;;;;;;16.30;8.27;;;-0.50;99.90;;;;;;5071491;28;20048;-79
2021/01/07 02:11:34;;;;;;;16.75;8.60;;;-0.50;99.90;;;;;;5087905;28;20138;-79
2021/01/07 02:14:06;;;;;;;13.90;7.82;;;-0.50;99.90;;;;;;5071571;28;20044;-79
2021/01/07 02:16:32;;;;;;;12.25;7.82;;;-0.50;99.90;;;;;;5070506;28;20076;-79
2021/01/07 02:19:03;;;;;;;15.10;8.50;;;-0.50;99.90;;;;;;5071277;28;20040;-80
2021/01/07 02:21:36;;;;;;;15.80;9.00;;;-0.50;99.90;;;;;;5071161;28;20581;-79
2021/01/07 02:24:03;;;;;;;12.30;7.85;;;-0.50;99.90;;;;;;5070589;28;20071;-79
2021/01/07 02:26:34;;;;;;;15.98;10.15;;;-0.50;99.90;;;;;;5071490;28;20500;-79
2021/01/07 02:29:05;;;;;;;14.85;9.15;;;-0.50;99.90;;;;;;5071507;28;20307;-80
2021/01/07 02:31:39;;;;;;;14.07;8.45;;;-0.60;99.90;;;;;;5071999;28;20131;-79
2021/01/07 02:34:10;;;;;;;14.45;8.18;;;-0.60;99.90;;;;;;5071860;28;20094;-79
2021/01/07 02:36:41;;;;;;;12.32;7.75;;;-0.60;99.90;;;;;;5072262;28;20071;-79
2021/01/07 02:39:13;;;;;;;11.95;7.50;;;-0.60;99.90;;;;;;5071249;28;20575;-79
2021/01/07 02:41:55;;;;;;;15.90;8.63;;;-0.60;99.90;;;;;;5071222;28;20123;-79
2021/01/07 02:44:27;;;;;;;14.07;8.02;;;-0.50;99.90;;;;;;5071878;28;20044;-80
2021/01/07 02:46:58;;;;;;;12.57;7.70;;;-0.60;99.90;;;;;;5071640;28;20559;-79
2021/01/07 02:49:32;;;;;;;14.68;8.30;;;-0.60;99.90;;;;;;5088522;28;20391;-79
2021/01/07 02:52:03;;;;;;;15.65;8.40;;;-0.50;99.90;;;;;;5075509;28;20563;-80
2021/01/07 02:54:36;;;;;;;14.02;8.13;;;-0.50;99.90;;;;;;5091908;28;20064;-79
2021/01/07 02:57:07;;;;;;;17.08;8.98;;;-0.50;99.90;;;;;;5075403;28;20050;-79
2021/01/07 02:59:38;;;;;;;16.75;10.25;;;-0.50;99.90;;;;;;5075340;28;20131;-79
2021/01/07 03:02:04;;;;;;;13.73;8.15;;;-0.50;99.90;;;;;;5092051;28;20067;-79
2021/01/07 03:04:36;;;;;;;16.42;8.90;;;-0.50;99.90;;;;;;5091425;28;20059;-79
2021/01/07 03:07:07;;;;;;;16.20;9.48;;;-0.50;99.90;;;;;;5091665;28;20264;-79
2021/01/07 03:09:38;;;;;;;19.10;10.05;;;-0.50;99.90;;;;;;5075166;28;20070;-79
2021/01/07 03:12:14;;;;;;;18.52;10.75;;;-0.50;99.90;;;;;;5075503;28;20581;-79
2021/01/07 03:14:47;;;;;;;17.40;9.30;;;-0.50;99.90;;;;;;5074954;28;20093;-80
2021/01/07 03:17:19;;;;;;;;;;;-0.50;99.90;;;;;;5075719;28;20048;-79
2021/01/07 03:19:51;;;;;;;13.80;9.10;;;-0.50;99.90;;;;;;5074796;28;19966;-79
2021/01/07 03:22:23;;;;;;;15.73;8.88;;;-0.50;99.90;;;;;;5091354;28;20036;-79
2021/01/07 03:24:54;;;;;;;16.10;9.25;;;-0.50;99.90;;;;;;5090857;28;20564;-79
2021/01/07 03:27:25;;;;;;;18.38;9.50;;;-0.50;99.90;;;;;;5075044;28;20067;-79
2021/01/07 03:29:52;;;;;;;18.73;10.07;;;-0.60;99.90;;;;;;5074021;28;20044;-79
2021/01/07 03:32:24;;;;;;;18.85;9.95;;;-0.50;99.90;;;;;;5075170;28;20127;-79
2021/01/07 03:34:56;;;;;;;17.73;10.30;;;-0.60;99.90;;;;;;5075054;28;20240;-79
2021/01/07 03:37:22;;;;;;;18.35;9.77;;;-0.60;99.90;;;;;;5074264;28;20079;-80
2021/01/07 03:39:53;;;;;;;17.67;9.10;;;-0.60;99.90;;;;;;5074403;28;20479;-79
2021/01/07 03:42:24;;;;;;;16.55;9.35;;;-0.60;99.90;;;;;;5074848;28;20131;-79
2021/01/07 03:44:56;;;;;;;19.20;9.80;;;-0.60;99.90;;;;;;5074949;28;20044;-79
2021/01/07 03:47:27;;;;;;;17.85;8.98;;;-0.60;99.90;;;;;;5091278;28;20481;-79
2021/01/07 03:49:58;;;;;;;19.98;11.20;;;-0.60;99.90;;;;;;5074574;28;20113;-79
2021/01/07 03:52:26;;;;;;;18.80;10.85;;;-0.60;99.90;;;;;;5074318;28;20407;-79
2021/01/07 03:54:59;;;;;;;19.40;10.27;;;-0.60;99.90;;;;;;5074975;28;20044;-79
2021/01/07 03:57:30;;;;;;;17.33;9.27;;;-0.60;99.90;;;;;;5074767;28;20142;-79
2021/01/07 03:59:57;;;;;;;20.10;10.50;;;-0.60;99.90;;;;;;5074145;28;20063;-80
2021/01/07 04:02:31;;;;;;;17.23;10.15;;;-0.60;99.90;;;;;;5090560;28;20044;-79
2021/01/07 04:05:03;;;;;;;18.60;10.82;;;-0.60;99.90;;;;;;5074422;28;20455;-79
2021/01/07 04:07:37;;;;;;;16.83;10.07;;;-0.60;99.90;;;;;;5075049;28;20065;-79
2021/01/07 04:10:09;;;;;;;17.83;9.77;;;-0.60;99.90;;;;;;5074716;28;20135;-79
2021/01/07 04:12:40;;;;;;;22.40;10.57;;;-0.60;99.90;;;;;;5091272;28;20052;-80
2021/01/07 04:15:07;;;;;;;19.02;10.30;;;-0.60;99.90;;;;;;5074054;28;20142;-80
2021/01/07 04:17:38;;;;;;;21.48;10.73;;;-0.60;99.90;;;;;;5074597;28;20071;-79
2021/01/07 04:20:09;;;;;;;19.05;9.32;;;-0.60;99.90;;;;;;5074727;28;20092;-79
2021/01/07 04:22:41;;;;;;;20.88;10.35;;;-0.60;99.90;;;;;;5091740;28;20082;-79
2021/01/07 04:25:13;;;;;;;20.02;11.02;;;-0.60;99.90;;;;;;5090057;28;20448;-79
2021/01/07 04:27:39;;;;;;;20.67;11.45;;;-0.60;99.90;;;;;;5074496;28;20047;-79
2021/01/07 04:30:12;;;;;;;20.13;10.57;;;-0.60;99.90;;;;;;5074777;28;20062;-79
2021/01/07 04:32:43;;;;;;;19.55;10.35;;;-0.60;99.90;;;;;;5074614;28;20044;-79
2021/01/07 04:35:15;;;;;;;19.83;11.95;;;-0.60;99.90;;;;;;5074641;28;20680;-79
2021/01/07 04:37:46;;;;;;;19.00;10.50;;;-0.70;99.90;;;;;;5090634;28;20054;-79
2021/01/07 04:40:14;;;;;;;21.67;10.95;;;-0.70;99.90;;;;;;5075879;28;20063;-79
2021/01/07 04:42:45;;;;;;;22.35;11.90;;;-0.60;99.90;;;;;;5074681;28;20043;-79
2021/01/07 04:45:12;;;;;;;22.65;11.52;;;-0.60;99.90;;;;;;5090668;28;20056;-79
2021/01/07 04:47:46;;;;;;;22.25;10.88;;;-0.60;99.90;;;;;;5073512;28;20078;-79
2021/01/07 04:50:21;;;;;;;21.70;11.15;;;-0.60;99.90;;;;;;5090056;28;20052;-80
2021/01/07 04:52:53;;;;;;;21.00;12.02;;;-0.60;99.90;;;;;;5089421;28;20048;-79
2021/01/07 04:55:24;;;;;;;22.98;11.82;;;-0.60;99.90;;;;;;5089634;28;20131;-80
2021/01/07 04:57:55;;;;;;;19.95;11.45;;;-0.60;99.90;;;;;;5073409;28;20051;-79
2021/01/07 05:00:28;;;;;;;23.63;11.98;;;-0.60;99.90;;;;;;5073777;28;20131;-79
2021/01/07 05:03:01;;;;;;;24.42;11.60;;;-0.60;99.90;;;;;;5073491;28;20554;-79
2021/01/07 05:05:35;;;;;;;23.42;12.00;;;-0.60;99.90;;;;;;5073548;28;20669;-79
2021/01/07 05:08:06;;;;;;;23.02;11.43;;;-0.60;99.90;;;;;;5073446;28;20044;-79
2021/01/07 05:10:43;;;;;;;21.98;11.10;;;-0.60;99.90;;;;;;5073223;28;20043;-79
2021/01/07 05:13:17;;;;;;;21.27;11.90;;;-0.60;99.90;;;;;;5072610;28;20068;-79
2021/01/07 05:15:49;;;;;;;24.20;11.43;;;-0.60;99.90;;;;;;5073020;28;20071;-79
2021/01/07 05:18:20;;;;;;;24.65;11.95;;;-0.60;99.90;;;;;;5072660;28;20210;-79
2021/01/07 05:20:51;;;;;;;21.67;11.75;;;-0.60;99.90;;;;;;5064930;28;20500;-79
2021/01/07 05:23:24;;;;;;;23.45;12.63;;;-0.60;99.90;;;;;;5048545;28;20037;-79
2021/01/07 05:25:55;;;;;;;23.02;11.82;;;-0.60;99.90;;;;;;5049004;28;20056;-79
2021/01/07 05:28:26;;;;;;;27.00;12.73;;;-0.60;99.90;;;;;;5048548;28;20252;-79
2021/01/07 05:30:59;;;;;;;22.00;11.57;;;-0.60;99.90;;;;;;5048887;28;20467;-79
2021/01/07 05:33:31;;;;;;;22.85;12.25;;;-0.60;99.90;;;;;;5048700;28;20045;-80
2021/01/07 05:36:16;;;;;;;20.58;11.73;;;-0.60;99.90;;;;;;5048811;28;20135;-79
2021/01/07 05:38:42;;;;;;;24.63;12.45;;;-0.60;99.90;;;;;;5031787;28;20051;-79
2021/01/07 05:41:14;;;;;;;23.77;12.70;;;-0.50;99.90;;;;;;5048655;28;20065;-79
2021/01/07 05:43:57;;;;;;;25.38;11.93;;;-0.60;99.90;;;;;;5049191;28;20040;-79
2021/01/07 05:46:31;;;;;;;22.48;11.80;;;-0.50;99.90;;;;;;5052512;28;20041;-79
2021/01/07 05:49:03;;;;;;;24.52;12.70;;;-0.60;99.90;;;;;;5086550;28;20044;-79
2021/01/07 05:51:37;;;;;;;24.80;12.50;;;-0.50;99.90;;;;;;5070122;28;20142;-79
2021/01/07 05:54:09;;;;;;;24.48;11.63;;;-0.60;99.90;;;;;;5072094;28;20140;-79
2021/01/07 05:56:43;;;;;;;28.10;12.60;;;-0.60;99.90;;;;;;5072548;28;20054;-79
2021/01/07 05:59:12;;;;;;;23.80;12.60;;;-0.60;99.90;;;;;;5071710;28;20052;-79
2021/01/07 06:01:43;;;;;;;23.63;12.77;;;-0.60;99.90;;;;;;5072391;28;20036;-79
2021/01/07 06:04:17;;;;;;;23.90;11.80;;;-0.60;99.90;;;;;;5070850;28;20051;-79
2021/01/07 06:06:48;;;;;;;25.02;11.85;;;-0.60;99.90;;;;;;5072785;28;20063;-79
2021/01/07 06:09:15;;;;;;;23.23;11.43;;;-0.60;99.90;;;;;;5071907;28;20040;-79
2021/01/07 06:11:48;;;;;;;27.05;12.45;;;-0.60;99.90;;;;;;5088743;28;20111;-79
2021/01/07 06:14:20;;;;;;;25.95;13.32;;;-0.60;99.90;;;;;;5070157;28;20430;-79
2021/01/07 06:16:59;;;;;;;28.15;13.30;;;-0.60;99.90;;;;;;5087287;28;20048;-79
2021/01/07 06:19:36;;;;;;;22.35;11.98;;;-0.60;99.90;;;;;;5072264;28;20110;-79
2021/01/07 06:22:09;;;;;;;25.98;12.48;;;-0.60;99.90;;;;;;5072460;28;20071;-79
2021/01/07 06:24:41;;;;;;;28.90;13.20;;;-0.60;99.90;;;;;;5089953;28;20044;-79
2021/01/07 06:27:31;;;;;;;29.85;13.88;;;-0.60;99.90;;;;;;5085482;28;20114;-79
2021/01/07 06:30:07;;;;;;;28.98;13.70;;;-0.60;99.90;;;;;;5059947;28;20040;-79
2021/01/07 06:32:34;;;;;;;27.65;12.93;;;-0.60;99.90;;;;;;5065473;28;20044;-79
2021/01/07 06:35:06;;;;;;;25.15;12.63;;;-0.60;99.90;;;;;;5085779;28;20041;-79
2021/01/07 06:37:42;;;;;;;27.90;13.50;;;-0.60;99.90;;;;;;5062358;28;20447;-79
2021/01/07 06:40:15;;;;;;;32.20;14.70;;;-0.60;99.90;;;;;;5088849;28;20032;-79
2021/01/07 06:42:50;;;;;;;26.83;14.88;;;-0.60;99.90;;;;;;5064315;28;20192;-79
2021/01/07 06:45:26;;;;;;;27.05;14.07;;;-0.60;99.90;;;;;;5055281;28;20040;-80
2021/01/07 06:47:57;;;;;;;31.05;13.52;;;-0.60;99.90;;;;;;5071163;28;20041;-79
2021/01/07 06:50:36;;;;;;;29.35;14.68;;;-0.60;99.90;;;;;;5055335;28;20558;-79
2021/01/07 06:53:04;;;;;;;27.55;13.52;;;-0.60;99.90;;;;;;5054574;28;20139;-79
2021/01/07 06:55:35;;;;;;;32.67;15.02;;;-0.50;99.90;;;;;;5073061;28;20054;-79
2021/01/07 06:58:08;;;;;;;34.63;14.50;;;-0.50;99.90;;;;;;5058675;28;20135;-79
2021/01/07 07:00:42;;;;;;;30.40;14.32;;;-0.60;99.90;;;;;;5090232;28;20038;-79
2021/01/07 07:03:20;;;;;;;28.90;13.18;;;-0.60;99.90;;;;;;5059904;28;20136;-79
2021/01/07 07:05:59;;;;;;;29.20;14.50;;;-0.50;99.90;;;;;;5072840;28;20119;-79
2021/01/07 07:08:38;;;;;;;30.85;14.10;;;-0.60;99.90;;;;;;5072148;28;20184;-79
2021/01/07 07:11:09;;;;;;;31.20;13.05;;;-0.60;99.90;;;;;;5075199;28;20054;-78
2021/01/07 07:13:43;;;;;;;33.38;15.18;;;-0.50;99.90;;;;;;5075505;28;20525;-79
2021/01/07 07:16:15;;;;;;;31.27;13.32;;;-0.60;99.90;;;;;;5055996;28;20044;-79
2021/01/07 07:18:46;;;;;;;34.53;15.88;;;-0.50;99.90;;;;;;5054853;28;20513;-80
2021/01/07 07:21:21;;;;;;;32.08;15.93;;;-0.50;99.90;;;;;;5071262;28;20047;-79
2021/01/07 07:23:48;;;;;;;28.85;13.32;;;-0.50;99.90;;;;;;5071057;28;20139;-79
2021/01/07 07:26:38;;;;;;;29.58;15.15;;;-0.50;99.90;;;;;;5055152;28;20043;-79
2021/01/07 07:29:12;;;;;;;31.73;13.63;;;-0.50;99.90;;;;;;5054753;28;20139;-80
2021/01/07 07:31:46;;;;;;;28.90;14.65;;;-0.50;99.90;;;;;;5072663;28;20059;-79
2021/01/07 07:34:31;;;;;;;32.08;14.98;;;-0.50;99.90;;;;;;5079964;28;20040;-79
2021/01/07 07:37:18;;;;;;;32.05;15.50;;;-0.50;99.90;;;;;;5054391;28;20067;-79
2021/01/07 07:39:50;;;;;;;30.35;13.90;;;-0.50;99.90;;;;;;5065215;28;20119;-79
2021/01/07 07:42:23;;;;;;;28.58;13.25;;;-0.50;99.90;;;;;;5077678;28;20045;-79
2021/01/07 07:44:55;;;;;;;30.88;15.68;;;-0.50;99.90;;;;;;5070705;28;20047;-79
2021/01/07 07:47:26;;;;;;;30.75;14.15;;;-0.50;99.90;;;;;;5068860;28;20041;-79
2021/01/07 07:49:58;;;;;;;31.15;15.52;;;-0.40;99.90;;;;;;5055146;28;20148;-78
2021/01/07 07:52:29;;;;;;;33.78;14.90;;;-0.40;99.90;;;;;;5055707;28;20490;-79
2021/01/07 07:55:05;;;;;;;32.42;16.77;;;-0.40;99.90;;;;;;5055280;28;20139;-79
2021/01/07 07:57:47;;;;;;;31.90;14.30;;;-0.40;99.90;;;;;;5058634;28;20125;-80
2021/01/07 08:00:19;;;;;;;32.63;15.48;;;-0.30;99.90;;;;;;5075202;28;20044;-78
2021/01/07 08:02:50;;;;;;;32.80;15.90;;;-0.30;99.90;;;;;;5080152;28;20047;-78
2021/01/07 08:05:30;;;;;;;34.90;16.15;;;-0.30;99.90;;;;;;5056180;28;20037;-79
2021/01/07 08:08:01;;;;;;;31.38;15.48;;;-0.30;99.90;;;;;;5075275;28;20036;-77
2021/01/07 08:10:27;;;;;;;37.88;16.38;;;-0.30;99.90;;;;;;5078866;28;20044;-80
2021/01/07 08:13:00;;;;;;;36.50;17.35;;;-0.20;99.90;;;;;;5072901;28;20048;-79
2021/01/07 08:15:32;;;;;;;36.65;16.45;;;-0.20;99.90;;;;;;5067197;28;20066;-80
2021/01/07 08:18:18;;;;;;;33.30;16.02;;;-0.20;99.90;;;;;;5087113;28;20044;-80
2021/01/07 08:20:52;;;;;;;34.58;16.30;;;-0.20;99.90;;;;;;5058577;28;20208;-80
2021/01/07 08:23:25;;;;;;;35.97;17.05;;;-0.20;99.90;;;;;;5058185;28;20191;-79
2021/01/07 08:25:57;;;;;;;33.53;16.33;;;-0.20;99.90;;;;;;5070431;28;20040;-80
2021/01/07 08:28:37;;;;;;;35.50;16.05;;;-0.20;99.90;;;;;;5051051;28;20048;-79
2021/01/07 08:31:12;;;;;;;37.95;17.75;;;-0.20;99.90;;;;;;5054251;28;20136;-80
2021/01/07 08:33:45;;;;;;;36.83;16.55;;;-0.10;99.90;;;;;;5065622;28;20044;-78
2021/01/07 08:36:13;;;;;;;36.33;16.25;;;-0.10;99.90;;;;;;5057649;28;20075;-79
2021/01/07 08:38:53;;;;;;;32.40;16.13;;;0.00;99.90;;;;;;5059255;28;20071;-78
2021/01/07 08:41:27;;;;;;;31.95;14.80;;;-0.10;99.90;;;;;;5069259;28;20047;-78
2021/01/07 08:44:03;;;;;;;37.13;17.10;;;-0.10;99.90;;;;;;5077932;28;20067;-79
2021/01/07 08:46:42;;;;;;;30.80;15.43;;;-0.10;99.90;;;;;;5071999;28;20059;-81
2021/01/07 08:49:16;;;;;;;37.42;16.77;;;-0.10;99.90;;;;;;5051296;28;20503;-78
2021/01/07 08:51:47;;;;;;;37.90;16.05;;;0.00;99.90;;;;;;5051857;28;20041;-79
2021/01/07 08:54:20;;;;;;;30.13;16.45;;;0.00;99.90;;;;;;5066001;28;20056;-77
2021/01/07 08:56:56;;;;;;;35.88;17.17;;;0.00;99.90;;;;;;5065894;28;20048;-77
2021/01/07 08:59:37;;;;;;;36.85;16.30;;;0.10;99.90;;;;;;5064994;28;20055;-77
2021/01/07 09:02:08;;;;;;;32.17;15.50;;;0.10;99.90;;;;;;5071269;28;20115;-77
2021/01/07 09:04:40;;;;;;;33.47;14.40;;;0.10;99.90;;;;;;5069980;28;20402;-78
2021/01/07 09:07:07;;;;;;;35.83;15.15;;;0.20;99.90;;;;;;5053401;28;20499;-80
2021/01/07 09:09:52;;;;;;;33.05;15.20;;;0.20;99.90;;;;;;5088708;28;20048;-79
2021/01/07 09:12:36;;;;;;;29.85;14.15;;;0.30;99.90;;;;;;5072384;28;20060;-78
2021/01/07 09:15:22;;;;;;;33.28;15.75;;;0.30;99.90;;;;;;5069413;28;20160;-79
2021/01/07 09:17:57;;;;;;;33.78;16.38;;;0.40;99.90;;;;;;5060061;28;20036;-80
2021/01/07 09:20:29;;;;;;;32.30;15.02;;;0.40;99.90;;;;;;5058861;28;20050;-77
2021/01/07 09:23:05;;;;;;;30.38;14.50;;;0.50;99.90;;;;;;5060362;28;20044;-77
2021/01/07 09:25:32;;;;;;;35.42;18.05;;;0.50;99.90;;;;;;5056430;28;20056;-79
2021/01/07 09:28:04;;;;;;;34.38;16.98;;;0.50;99.90;;;;;;5072020;28;20036;-80
2021/01/07 09:30:36;;;;;;;32.58;16.23;;;0.50;99.90;;;;;;5058235;28;20040;-79
2021/01/07 09:33:07;;;;;;;32.47;15.68;;;0.60;99.90;;;;;;5051232;28;20061;-77
2021/01/07 09:35:38;;;;;;;32.85;17.10;;;0.60;99.90;;;;;;5064149;28;20049;-79
2021/01/07 09:38:09;;;;;;;33.72;14.82;;;0.70;99.90;;;;;;5059610;28;20044;-79
2021/01/07 09:40:41;;;;;;;28.92;15.25;;;0.70;99.90;;;;;;5065257;28;20062;-78
2021/01/07 09:43:08;;;;;;;33.60;16.38;;;0.70;99.90;;;;;;5073725;28;20040;-78
2021/01/07 09:45:34;;;;;;;29.05;14.82;;;0.80;99.90;;;;;;5072166;28;20115;-79
2021/01/07 09:48:05;;;;;;;29.85;14.70;;;0.70;99.90;;;;;;5054453;28;20449;-77
2021/01/07 09:50:36;;;;;;;33.50;14.68;;;0.80;99.90;;;;;;5054719;28;20080;-79
2021/01/07 09:53:02;;;;;;;31.10;16.17;;;0.90;99.90;;;;;;5072240;28;20131;-78
2021/01/07 09:55:35;;;;;;;34.95;18.92;;;0.90;99.90;;;;;;5071293;28;20045;-78
2021/01/07 09:58:01;;;;;;;30.35;16.52;;;1.00;99.90;;;;;;5055208;28;20163;-77
2021/01/07 10:00:33;;;;;;;31.83;16.77;;;1.00;99.90;;;;;;5054746;28;20041;-78
2021/01/07 10:02:59;;;;;;;32.28;16.00;;;0.90;99.90;;;;;;5053892;28;20110;-79
2021/01/07 10:05:30;;;;;;;32.60;15.18;;;0.90;99.90;;;;;;5051560;28;20083;-79
2021/01/07 10:08:01;;;;;;;29.77;15.23;;;0.90;99.90;;;;;;5053900;28;20044;-77
2021/01/07 10:10:28;;;;;;;37.13;18.45;;;0.90;99.90;;;;;;5084545;28;20075;-78
2021/01/07 10:12:59;;;;;;;26.88;14.15;;;0.90;99.90;;;;;;5075536;28;20036;-79
2021/01/07 10:15:30;;;;;;;28.45;14.52;;;1.00;99.90;;;;;;5092043;28;20048;-79
2021/01/07 10:18:01;;;;;;;28.20;13.93;;;1.00;99.90;;;;;;5078272;28;20040;-79
2021/01/07 10:20:32;;;;;;;26.60;13.77;;;1.00;99.90;;;;;;5055550;28;20044;-79
2021/01/07 10:23:06;;;;;;;29.40;14.80;;;1.00;99.90;;;;;;5071268;28;20499;-78
2021/01/07 10:25:38;;;;;;;32.33;15.50;;;1.00;99.90;;;;;;5055519;28;20135;-78
2021/01/07 10:28:10;;;;;;;24.70;13.13;;;1.00;99.90;;;;;;5055391;28;20040;-78
2021/01/07 10:30:41;;;;;;;29.02;14.23;;;1.00;99.90;;;;;;5061564;28;20044;-78
2021/01/07 10:33:13;;;;;;;26.20;13.93;;;0.90;99.90;;;;;;5069030;28;20044;-79
2021/01/07 10:35:45;;;;;;;25.33;12.85;;;0.90;99.90;;;;;;5035914;28;20052;-79
2021/01/07 10:38:23;;;;;;;26.15;12.90;;;1.00;99.90;;;;;;5067078;28;20040;-80
2021/01/07 10:40:57;;;;;;;27.50;13.63;;;1.10;99.90;;;;;;5070925;28;20392;-78
2021/01/07 10:43:29;;;;;;;25.13;13.02;;;1.10;99.90;;;;;;5068775;28;20033;-78
2021/01/07 10:46:02;;;;;;;24.95;13.00;;;1.20;99.90;;;;;;5091417;28;20131;-78
2021/01/07 10:48:42;;;;;;;20.55;11.77;;;1.20;99.90;;;;;;5075481;28;20051;-78
2021/01/07 10:51:15;;;;;;;27.85;14.55;;;1.10;99.90;;;;;;5074109;28;20414;-79
2021/01/07 10:54:06;;;;;;;28.05;14.45;;;1.10;99.90;;;;;;5051752;28;20049;-77
2021/01/07 10:57:03;;;;;;;33.55;15.77;;;1.10;99.90;;;;;;5060332;28;20050;-78
2021/01/07 10:59:58;;;;;;;26.90;15.15;;;1.20;99.90;;;;;;5074537;28;20050;-79
2021/01/07 11:03:17;;;;;;;23.35;10.90;;;1.20;99.90;;;;;;5074466;28;20111;-78
2021/01/07 11:05:52;;;;;;;29.65;13.57;;;1.20;99.90;;;;;;5075277;28;20044;-78
2021/01/07 11:08:33;;;;;;;23.58;12.07;;;1.20;99.90;;;;;;5071771;28;20054;-79
2021/01/07 11:11:25;;;;;;;18.98;11.10;;;1.30;99.90;;;;;;5052103;28;20043;-78
2021/01/07 11:14:10;;;;;;;23.58;11.88;;;1.40;99.90;;;;;;5036176;28;20041;-79
2021/01/07 11:16:46;;;;;;;21.92;11.57;;;1.50;99.90;;;;;;5069181;28;20060;-79
2021/01/07 11:19:23;;;;;;;22.65;11.55;;;1.50;99.90;;;;;;5069127;28;20045;-78
2021/01/07 11:22:01;;;;;;;18.77;9.80;;;1.50;99.90;;;;;;5069761;28;20697;-78
2021/01/07 11:24:32;;;;;;;24.58;12.80;;;1.50;99.90;;;;;;5037256;28;20040;-78
2021/01/07 11:27:00;;;;;;;22.48;11.40;;;1.50;99.90;;;;;;5081982;28;20044;-78
2021/01/07 11:29:34;;;;;;;24.20;12.75;;;1.40;99.90;;;;;;5075983;28;20076;-78
2021/01/07 11:32:02;;;;;;;21.83;11.07;;;1.40;99.90;;;;;;5083219;28;20146;-78
2021/01/07 11:34:28;;;;;;;21.65;11.80;;;1.40;99.90;;;;;;5075290;28;20056;-78
2021/01/07 11:37:28;;;;;;;24.27;12.65;;;1.40;99.90;;;;;;5075765;28;20051;-78
2021/01/07 11:40:15;;;;;;;24.15;11.82;;;1.40;99.90;;;;;;5045431;28;20047;-78
2021/01/07 11:43:02;;;;;;;23.42;12.65;;;1.30;99.90;;;;;;5051108;28;20041;-79
2021/01/07 11:45:35;;;;;;;23.38;12.35;;;1.30;99.90;;;;;;5051109;28;20049;-78
2021/01/07 11:48:07;;;;;;;22.58;11.88;;;1.30;99.90;;;;;;5084429;28;20055;-79
2021/01/07 11:50:43;;;;;;;20.95;11.52;;;1.50;99.90;;;;;;5067291;28;20048;-78
2021/01/07 11:53:16;;;;;;;23.20;11.48;;;1.50;99.90;;;;;;5105317;28;20043;-78
2021/01/07 11:55:48;;;;;;;25.55;13.43;;;1.50;99.90;;;;;;5091516;28;20048;-78
2021/01/07 11:58:19;;;;;;;43.55;22.10;;;1.60;99.90;;;;;;5091554;28;20396;-79
2021/01/07 12:00:59;;;;;;;24.02;12.88;;;1.60;99.90;;;;;;5073740;28;20506;-78
2021/01/07 12:03:32;;;;;;;25.02;11.30;;;1.60;99.90;;;;;;5055584;28;20063;-78
2021/01/07 12:06:08;;;;;;;21.23;11.15;;;1.60;99.90;;;;;;5071774;28;20065;-77
2021/01/07 12:09:00;;;;;;;22.42;10.90;;;1.60;99.90;;;;;;5071089;28;20047;-78
2021/01/07 12:11:35;;;;;;;21.60;12.00;;;1.50;99.90;;;;;;5054542;28;20707;-78
2021/01/07 12:14:12;;;;;;;19.75;10.90;;;1.50;99.90;;;;;;5053864;28;20130;-78
2021/01/07 12:16:50;;;;;;;22.00;10.52;;;1.50;99.90;;;;;;5065369;28;20407;-78
2021/01/07 12:19:27;;;;;;;19.75;10.10;;;1.40;99.90;;;;;;5066168;28;20048;-78
2021/01/07 12:22:01;;;;;;;21.60;10.35;;;1.30;99.90;;;;;;5065764;28;20037;-78
2021/01/07 12:24:34;;;;;;;18.42;10.00;;;1.30;99.90;;;;;;5065917;28;20045;-78
2021/01/07 12:27:07;;;;;;;20.63;10.90;;;1.20;99.90;;;;;;5065975;28;20495;-79
2021/01/07 12:29:40;;;;;;;15.73;8.05;;;1.20;99.90;;;;;;5065506;28;20053;-78
2021/01/07 12:32:29;;;;;;;17.77;9.82;;;1.20;99.90;;;;;;5035356;28;20061;-78
2021/01/07 12:35:16;;;;;;;19.00;9.38;;;1.20;99.90;;;;;;5070272;28;20784;-78
2021/01/07 12:37:53;;;;;;;20.95;11.23;;;1.30;99.90;;;;;;5083722;28;20179;-78
2021/01/07 12:40:23;;;;;;;21.92;10.63;;;1.30;99.90;;;;;;5053119;28;20058;-77
2021/01/07 12:43:00;;;;;;;22.33;11.30;;;1.30;99.90;;;;;;5061715;28;20052;-77
2021/01/07 12:45:34;;;;;;;18.35;10.20;;;1.20;99.90;;;;;;5037849;28;20037;-79
2021/01/07 12:48:05;;;;;;;31.52;14.93;;;1.20;99.90;;;;;;5070110;28;20047;-79
2021/01/07 12:50:37;;;;;;;21.13;11.10;;;1.20;99.90;;;;;;5069743;28;20402;-79
2021/01/07 12:53:08;;;;;;;22.20;10.48;;;1.30;99.90;;;;;;5050754;28;20531;-74
2021/01/07 12:55:39;;;;;;;19.52;10.68;;;1.40;99.90;;;;;;5051049;28;20139;-77
2021/01/07 12:58:21;;;;;;;22.85;12.30;;;1.50;99.90;;;;;;5056863;28;20059;-78
2021/01/07 13:01:02;;;;;;;19.85;11.45;;;1.60;99.90;;;;;;5051300;28;20478;-78
2021/01/07 13:03:42;;;;;;;17.35;9.70;;;1.60;99.90;;;;;;5067610;28;20514;-78